sensor_id;sensor_type;location;lat;lon;timestamp;temperature;humidity
2409;DHT22;8463;48.094;7.970;2024-02-21T00:00:07;5.40;1.00
2409;DHT22;8463;48.094;7.970;2024-02-21T00:02:32;5.40;1.00
2409;DHT22;8463;48.094;7.970;2024-02-21T00:04:59;5.40;1.00
2409;DHT22;8463;48.094;7.970;2024-02-21T00:07:25;5.40;1.00
2409;DHT22;8463;48.094;7.970;2024-02-21T00:09:50;5.40;1.00
2409;DHT22;8463;48.094;7.970;2024-02-21T00:12:16;5.40;1.00
2409;DHT22;8463;48.094;7.970;2024-02-21T00:14:42;5.40;1.00
2409;DHT22;8463;48.094;7.970;2024-02-21T00:17:07;5.40;1.00
2409;DHT22;8463;48.094;7.970;2024-02-21T00:19:34;5.40;1.00
2409;DHT22;8463;48.094;7.970;2024-02-21T00:22:00;5.40;1.00
2409;DHT22;8463;48.094;7.970;2024-02-21T00:24:25;5.40;1.00
2409;DHT22;8463;48.094;7.970;2024-02-21T00:26:53;5.40;1.00
2409;DHT22;8463;48.094;7.970;2024-02-21T00:29:21;5.40;1.00
2409;DHT22;8463;48.094;7.970;2024-02-21T00:31:48;5.40;1.00
2409;DHT22;8463;48.094;7.970;2024-02-21T00:34:14;5.40;1.00
2409;DHT22;8463;48.094;7.970;2024-02-21T00:36:40;5.40;1.00
2409;DHT22;8463;48.094;7.970;2024-02-21T00:39:05;5.30;1.00
2409;DHT22;8463;48.094;7.970;2024-02-21T00:41:31;5.30;1.00
2409;DHT22;8463;48.094;7.970;2024-02-21T00:43:57;5.30;1.00
2409;DHT22;8463;48.094;7.970;2024-02-21T00:46:23;5.40;1.00
2409;DHT22;8463;48.094;7.970;2024-02-21T00:48:48;5.30;1.00
2409;DHT22;8463;48.094;7.970;2024-02-21T00:51:15;5.30;1.00
2409;DHT22;8463;48.094;7.970;2024-02-21T00:53:43;5.40;1.00
2409;DHT22;8463;48.094;7.970;2024-02-21T00:56:08;5.40;1.00
2409;DHT22;8463;48.094;7.970;2024-02-21T00:58:34;5.50;1.00
2409;DHT22;8463;48.094;7.970;2024-02-21T01:01:03;5.50;1.00
2409;DHT22;8463;48.094;7.970;2024-02-21T01:03:28;5.50;1.00
2409;DHT22;8463;48.094;7.970;2024-02-21T01:05:54;5.50;1.00
2409;DHT22;8463;48.094;7.970;2024-02-21T01:08:20;5.50;1.00
2409;DHT22;8463;48.094;7.970;2024-02-21T01:10:45;5.50;1.00
2409;DHT22;8463;48.094;7.970;2024-02-21T01:13:11;5.50;1.00
2409;DHT22;8463;48.094;7.970;2024-02-21T01:15:37;5.50;1.00
2409;DHT22;8463;48.094;7.970;2024-02-21T01:18:05;5.50;1.00
2409;DHT22;8463;48.094;7.970;2024-02-21T01:20:30;5.50;1.00
2409;DHT22;8463;48.094;7.970;2024-02-21T01:22:56;5.50;1.00
2409;DHT22;8463;48.094;7.970;2024-02-21T01:25:23;5.50;1.00
2409;DHT22;8463;48.094;7.970;2024-02-21T01:27:49;5.50;1.00
2409;DHT22;8463;48.094;7.970;2024-02-21T01:30:17;5.50;1.00
2409;DHT22;8463;48.094;7.970;2024-02-21T01:32:42;5.50;1.00
2409;DHT22;8463;48.094;7.970;2024-02-21T01:35:08;5.50;1.00
2409;DHT22;8463;48.094;7.970;2024-02-21T01:37:34;5.50;1.00
2409;DHT22;8463;48.094;7.970;2024-02-21T01:39:59;5.50;1.00
2409;DHT22;8463;48.094;7.970;2024-02-21T01:42:25;5.50;1.00
2409;DHT22;8463;48.094;7.970;2024-02-21T01:44:53;5.50;1.00
2409;DHT22;8463;48.094;7.970;2024-02-21T01:47:19;5.50;1.00
2409;DHT22;8463;48.094;7.970;2024-02-21T01:49:45;5.50;1.00
2409;DHT22;8463;48.094;7.970;2024-02-21T01:52:14;5.50;1.00
2409;DHT22;8463;48.094;7.970;2024-02-21T01:54:44;5.50;1.00
2409;DHT22;8463;48.094;7.970;2024-02-21T01:57:10;5.50;1.00
2409;DHT22;8463;48.094;7.970;2024-02-21T01:59:35;5.50;1.00
2409;DHT22;8463;48.094;7.970;2024-02-21T02:02:02;5.50;1.00
2409;DHT22;8463;48.094;7.970;2024-02-21T02:04:27;5.50;1.00
2409;DHT22;8463;48.094;7.970;2024-02-21T02:06:54;5.50;1.00
2409;DHT22;8463;48.094;7.970;2024-02-21T02:09:21;5.50;1.00
2409;DHT22;8463;48.094;7.970;2024-02-21T02:11:46;5.50;1.00
2409;DHT22;8463;48.094;7.970;2024-02-21T02:14:12;5.50;1.00
2409;DHT22;8463;48.094;7.970;2024-02-21T02:16:38;5.50;1.00
2409;DHT22;8463;48.094;7.970;2024-02-21T02:19:03;5.50;1.00
2409;DHT22;8463;48.094;7.970;2024-02-21T02:21:30;5.50;1.00
2409;DHT22;8463;48.094;7.970;2024-02-21T02:23:57;5.50;1.00
2409;DHT22;8463;48.094;7.970;2024-02-21T02:26:26;5.50;1.00
2409;DHT22;8463;48.094;7.970;2024-02-21T02:28:52;5.50;1.00
2409;DHT22;8463;48.094;7.970;2024-02-21T02:31:18;5.50;1.00
2409;DHT22;8463;48.094;7.970;2024-02-21T02:33:44;5.60;1.00
2409;DHT22;8463;48.094;7.970;2024-02-21T02:36:10;5.50;1.00
2409;DHT22;8463;48.094;7.970;2024-02-21T02:38:35;5.50;1.00
2409;DHT22;8463;48.094;7.970;2024-02-21T02:41:03;5.50;1.00
2409;DHT22;8463;48.094;7.970;2024-02-21T02:43:29;5.50;1.00
2409;DHT22;8463;48.094;7.970;2024-02-21T02:45:55;5.50;1.00
2409;DHT22;8463;48.094;7.970;2024-02-21T02:48:21;5.50;1.00
2409;DHT22;8463;48.094;7.970;2024-02-21T02:50:46;5.60;1.00
2409;DHT22;8463;48.094;7.970;2024-02-21T02:53:12;5.60;1.00
2409;DHT22;8463;48.094;7.970;2024-02-21T02:55:38;5.60;1.00
2409;DHT22;8463;48.094;7.970;2024-02-21T02:58:04;5.60;1.00
2409;DHT22;8463;48.094;7.970;2024-02-21T03:00:31;5.60;1.00
2409;DHT22;8463;48.094;7.970;2024-02-21T03:03:01;5.70;1.00
2409;DHT22;8463;48.094;7.970;2024-02-21T03:05:31;5.60;1.00
2409;DHT22;8463;48.094;7.970;2024-02-21T03:07:57;5.60;1.00
2409;DHT22;8463;48.094;7.970;2024-02-21T03:10:25;5.60;1.00
2409;DHT22;8463;48.094;7.970;2024-02-21T03:12:51;5.60;1.00
2409;DHT22;8463;48.094;7.970;2024-02-21T03:15:18;5.60;1.00
2409;DHT22;8463;48.094;7.970;2024-02-21T03:17:44;5.50;1.00
2409;DHT22;8463;48.094;7.970;2024-02-21T03:20:10;5.50;1.00
2409;DHT22;8463;48.094;7.970;2024-02-21T03:22:37;5.50;1.00
2409;DHT22;8463;48.094;7.970;2024-02-21T03:25:03;5.40;1.00
2409;DHT22;8463;48.094;7.970;2024-02-21T03:27:29;5.40;1.00
2409;DHT22;8463;48.094;7.970;2024-02-21T03:29:54;5.40;1.00
2409;DHT22;8463;48.094;7.970;2024-02-21T03:32:20;5.40;1.00
2409;DHT22;8463;48.094;7.970;2024-02-21T03:34:45;5.30;1.00
2409;DHT22;8463;48.094;7.970;2024-02-21T03:37:11;5.30;1.00
2409;DHT22;8463;48.094;7.970;2024-02-21T03:39:39;5.30;1.00
2409;DHT22;8463;48.094;7.970;2024-02-21T03:42:07;5.30;1.00
2409;DHT22;8463;48.094;7.970;2024-02-21T03:44:33;5.30;1.00
2409;DHT22;8463;48.094;7.970;2024-02-21T03:46:59;5.20;1.00
2409;DHT22;8463;48.094;7.970;2024-02-21T03:49:25;5.20;1.00
2409;DHT22;8463;48.094;7.970;2024-02-21T03:51:51;5.20;1.00
2409;DHT22;8463;48.094;7.970;2024-02-21T03:54:17;5.20;1.00
2409;DHT22;8463;48.094;7.970;2024-02-21T03:56:42;5.20;1.00
2409;DHT22;8463;48.094;7.970;2024-02-21T03:59:08;5.10;1.00
2409;DHT22;8463;48.094;7.970;2024-02-21T04:01:36;5.10;1.00
2409;DHT22;8463;48.094;7.970;2024-02-21T04:04:02;5.10;1.00
2409;DHT22;8463;48.094;7.970;2024-02-21T04:06:31;5.10;1.00
2409;DHT22;8463;48.094;7.970;2024-02-21T04:08:57;5.00;1.00
2409;DHT22;8463;48.094;7.970;2024-02-21T04:11:22;5.00;1.00
2409;DHT22;8463;48.094;7.970;2024-02-21T04:13:48;5.00;1.00
2409;DHT22;8463;48.094;7.970;2024-02-21T04:16:15;5.00;1.00
2409;DHT22;8463;48.094;7.970;2024-02-21T04:18:42;5.00;1.00
2409;DHT22;8463;48.094;7.970;2024-02-21T04:21:08;5.00;1.00
2409;DHT22;8463;48.094;7.970;2024-02-21T04:23:36;5.00;1.00
2409;DHT22;8463;48.094;7.970;2024-02-21T04:26:01;5.00;1.00
2409;DHT22;8463;48.094;7.970;2024-02-21T04:28:27;4.90;1.00
2409;DHT22;8463;48.094;7.970;2024-02-21T04:30:53;4.90;1.00
2409;DHT22;8463;48.094;7.970;2024-02-21T04:33:18;4.90;1.00
2409;DHT22;8463;48.094;7.970;2024-02-21T04:35:44;4.90;1.00
2409;DHT22;8463;48.094;7.970;2024-02-21T04:38:10;4.90;1.00
2409;DHT22;8463;48.094;7.970;2024-02-21T04:40:35;4.90;1.00
2409;DHT22;8463;48.094;7.970;2024-02-21T04:43:01;4.80;1.00
2409;DHT22;8463;48.094;7.970;2024-02-21T04:45:27;4.80;1.00
2409;DHT22;8463;48.094;7.970;2024-02-21T04:47:52;4.80;1.00
2409;DHT22;8463;48.094;7.970;2024-02-21T04:50:18;4.70;1.00
2409;DHT22;8463;48.094;7.970;2024-02-21T04:52:43;4.70;1.00
2409;DHT22;8463;48.094;7.970;2024-02-21T04:55:09;4.70;1.00
2409;DHT22;8463;48.094;7.970;2024-02-21T04:57:35;4.70;1.00
2409;DHT22;8463;48.094;7.970;2024-02-21T05:00:00;4.60;1.00
2409;DHT22;8463;48.094;7.970;2024-02-21T05:02:28;4.60;1.00
2409;DHT22;8463;48.094;7.970;2024-02-21T05:04:54;4.50;1.00
2409;DHT22;8463;48.094;7.970;2024-02-21T05:07:19;4.50;1.00
2409;DHT22;8463;48.094;7.970;2024-02-21T05:09:45;4.50;1.00
2409;DHT22;8463;48.094;7.970;2024-02-21T05:12:11;4.50;1.00
2409;DHT22;8463;48.094;7.970;2024-02-21T05:14:37;4.50;1.00
2409;DHT22;8463;48.094;7.970;2024-02-21T05:17:04;4.50;1.00
2409;DHT22;8463;48.094;7.970;2024-02-21T05:19:29;4.40;1.00
2409;DHT22;8463;48.094;7.970;2024-02-21T05:21:55;4.40;1.00
2409;DHT22;8463;48.094;7.970;2024-02-21T05:24:21;4.40;1.00
2409;DHT22;8463;48.094;7.970;2024-02-21T05:26:46;4.40;1.00
2409;DHT22;8463;48.094;7.970;2024-02-21T05:29:12;4.40;1.00
2409;DHT22;8463;48.094;7.970;2024-02-21T05:34:19;4.40;1.00
2409;DHT22;8463;48.094;7.970;2024-02-21T05:36:47;4.30;1.00
2409;DHT22;8463;48.094;7.970;2024-02-21T05:39:15;4.40;1.00
2409;DHT22;8463;48.094;7.970;2024-02-21T05:41:40;4.40;1.00
2409;DHT22;8463;48.094;7.970;2024-02-21T05:44:06;4.40;1.00
2409;DHT22;8463;48.094;7.970;2024-02-21T05:46:32;4.40;1.00
2409;DHT22;8463;48.094;7.970;2024-02-21T05:48:57;4.30;1.00
2409;DHT22;8463;48.094;7.970;2024-02-21T05:51:23;4.30;1.00
2409;DHT22;8463;48.094;7.970;2024-02-21T05:53:48;4.30;1.00
2409;DHT22;8463;48.094;7.970;2024-02-21T05:56:14;4.30;1.00
2409;DHT22;8463;48.094;7.970;2024-02-21T05:58:40;4.30;1.00
2409;DHT22;8463;48.094;7.970;2024-02-21T06:01:07;4.30;1.00
2409;DHT22;8463;48.094;7.970;2024-02-21T06:03:33;4.30;1.00
2409;DHT22;8463;48.094;7.970;2024-02-21T06:06:02;4.30;1.00
2409;DHT22;8463;48.094;7.970;2024-02-21T06:08:27;4.30;1.00
2409;DHT22;8463;48.094;7.970;2024-02-21T06:10:53;4.30;1.00
2409;DHT22;8463;48.094;7.970;2024-02-21T06:13:26;4.30;1.00
2409;DHT22;8463;48.094;7.970;2024-02-21T06:15:52;4.30;1.00
2409;DHT22;8463;48.094;7.970;2024-02-21T06:18:18;4.30;1.00
2409;DHT22;8463;48.094;7.970;2024-02-21T06:20:44;4.30;1.00
2409;DHT22;8463;48.094;7.970;2024-02-21T06:23:15;4.30;1.00
2409;DHT22;8463;48.094;7.970;2024-02-21T06:25:42;4.30;1.00
2409;DHT22;8463;48.094;7.970;2024-02-21T06:28:07;4.30;1.00
2409;DHT22;8463;48.094;7.970;2024-02-21T06:30:33;4.30;1.00
2409;DHT22;8463;48.094;7.970;2024-02-21T06:33:01;4.30;1.00
2409;DHT22;8463;48.094;7.970;2024-02-21T06:35:28;4.20;1.00
2409;DHT22;8463;48.094;7.970;2024-02-21T06:37:54;4.30;1.00
2409;DHT22;8463;48.094;7.970;2024-02-21T06:40:21;4.30;1.00
2409;DHT22;8463;48.094;7.970;2024-02-21T06:42:47;4.30;1.00
2409;DHT22;8463;48.094;7.970;2024-02-21T06:45:13;4.30;1.00
2409;DHT22;8463;48.094;7.970;2024-02-21T06:47:39;4.30;1.00
2409;DHT22;8463;48.094;7.970;2024-02-21T06:50:05;4.40;1.00
2409;DHT22;8463;48.094;7.970;2024-02-21T06:52:30;4.40;1.00
2409;DHT22;8463;48.094;7.970;2024-02-21T06:54:56;4.40;1.00
2409;DHT22;8463;48.094;7.970;2024-02-21T06:57:22;4.50;1.00
2409;DHT22;8463;48.094;7.970;2024-02-21T06:59:48;4.50;1.00
2409;DHT22;8463;48.094;7.970;2024-02-21T07:02:14;4.50;1.00
2409;DHT22;8463;48.094;7.970;2024-02-21T07:04:39;4.50;1.00
2409;DHT22;8463;48.094;7.970;2024-02-21T07:07:05;4.50;1.00
2409;DHT22;8463;48.094;7.970;2024-02-21T07:09:31;4.60;1.00
2409;DHT22;8463;48.094;7.970;2024-02-21T07:11:58;4.60;1.00
2409;DHT22;8463;48.094;7.970;2024-02-21T07:14:24;4.70;1.00
2409;DHT22;8463;48.094;7.970;2024-02-21T07:16:50;4.70;1.00
2409;DHT22;8463;48.094;7.970;2024-02-21T07:19:16;4.80;1.00
2409;DHT22;8463;48.094;7.970;2024-02-21T07:21:41;4.70;1.00
2409;DHT22;8463;48.094;7.970;2024-02-21T07:24:08;4.80;1.00
2409;DHT22;8463;48.094;7.970;2024-02-21T07:26:33;4.80;1.00
2409;DHT22;8463;48.094;7.970;2024-02-21T07:28:59;4.80;1.00
2409;DHT22;8463;48.094;7.970;2024-02-21T07:31:25;4.90;1.00
2409;DHT22;8463;48.094;7.970;2024-02-21T07:33:50;5.00;1.00
2409;DHT22;8463;48.094;7.970;2024-02-21T07:36:29;5.00;1.00
2409;DHT22;8463;48.094;7.970;2024-02-21T07:38:55;5.10;1.00
2409;DHT22;8463;48.094;7.970;2024-02-21T07:41:21;5.20;1.00
2409;DHT22;8463;48.094;7.970;2024-02-21T07:43:46;5.20;1.00
2409;DHT22;8463;48.094;7.970;2024-02-21T07:46:14;5.30;1.00
2409;DHT22;8463;48.094;7.970;2024-02-21T07:48:39;5.30;1.00
2409;DHT22;8463;48.094;7.970;2024-02-21T07:51:05;5.40;1.00
2409;DHT22;8463;48.094;7.970;2024-02-21T07:53:31;5.40;1.00
2409;DHT22;8463;48.094;7.970;2024-02-21T07:55:59;5.40;1.00
2409;DHT22;8463;48.094;7.970;2024-02-21T07:58:25;5.50;1.00
2409;DHT22;8463;48.094;7.970;2024-02-21T08:00:51;5.60;1.00
2409;DHT22;8463;48.094;7.970;2024-02-21T08:03:16;5.70;1.00
2409;DHT22;8463;48.094;7.970;2024-02-21T08:05:43;5.70;1.00
2409;DHT22;8463;48.094;7.970;2024-02-21T08:08:09;5.70;1.00
2409;DHT22;8463;48.094;7.970;2024-02-21T08:10:37;5.70;1.00
2409;DHT22;8463;48.094;7.970;2024-02-21T08:13:04;5.80;1.00
2409;DHT22;8463;48.094;7.970;2024-02-21T08:15:30;5.90;1.00
2409;DHT22;8463;48.094;7.970;2024-02-21T08:17:56;5.90;1.00
2409;DHT22;8463;48.094;7.970;2024-02-21T08:20:27;6.00;1.00
2409;DHT22;8463;48.094;7.970;2024-02-21T08:22:53;6.10;1.00
2409;DHT22;8463;48.094;7.970;2024-02-21T08:25:18;6.20;1.00
2409;DHT22;8463;48.094;7.970;2024-02-21T08:27:44;6.20;1.00
2409;DHT22;8463;48.094;7.970;2024-02-21T08:30:11;6.30;1.00
2409;DHT22;8463;48.094;7.970;2024-02-21T08:32:37;6.40;1.00
2409;DHT22;8463;48.094;7.970;2024-02-21T08:35:03;6.50;1.00
2409;DHT22;8463;48.094;7.970;2024-02-21T08:37:28;6.60;1.00
2409;DHT22;8463;48.094;7.970;2024-02-21T08:39:54;6.70;1.00
2409;DHT22;8463;48.094;7.970;2024-02-21T08:42:20;6.80;1.00
2409;DHT22;8463;48.094;7.970;2024-02-21T08:44:45;6.80;1.00
2409;DHT22;8463;48.094;7.970;2024-02-21T08:47:11;6.90;1.00
2409;DHT22;8463;48.094;7.970;2024-02-21T08:49:37;7.00;1.00
2409;DHT22;8463;48.094;7.970;2024-02-21T08:52:03;7.10;1.00
2409;DHT22;8463;48.094;7.970;2024-02-21T08:54:31;7.10;1.00
2409;DHT22;8463;48.094;7.970;2024-02-21T08:56:58;7.20;1.00
2409;DHT22;8463;48.094;7.970;2024-02-21T08:59:23;7.30;1.00
2409;DHT22;8463;48.094;7.970;2024-02-21T09:01:51;7.40;1.00
2409;DHT22;8463;48.094;7.970;2024-02-21T09:04:17;7.40;1.00
2409;DHT22;8463;48.094;7.970;2024-02-21T09:06:43;7.50;1.00
2409;DHT22;8463;48.094;7.970;2024-02-21T09:09:10;7.60;1.00
2409;DHT22;8463;48.094;7.970;2024-02-21T09:11:36;7.70;1.00
2409;DHT22;8463;48.094;7.970;2024-02-21T09:14:01;7.80;1.00
2409;DHT22;8463;48.094;7.970;2024-02-21T09:16:32;7.90;1.00
2409;DHT22;8463;48.094;7.970;2024-02-21T09:18:58;7.90;1.00
2409;DHT22;8463;48.094;7.970;2024-02-21T09:21:23;8.00;1.00
2409;DHT22;8463;48.094;7.970;2024-02-21T09:23:49;8.10;1.00
2409;DHT22;8463;48.094;7.970;2024-02-21T09:26:15;8.20;1.00
2409;DHT22;8463;48.094;7.970;2024-02-21T09:28:42;8.40;1.00
2409;DHT22;8463;48.094;7.970;2024-02-21T09:31:09;8.50;1.00
2409;DHT22;8463;48.094;7.970;2024-02-21T09:33:35;8.70;1.00
2409;DHT22;8463;48.094;7.970;2024-02-21T09:36:01;8.80;1.00
2409;DHT22;8463;48.094;7.970;2024-02-21T09:38:27;9.00;1.00
2409;DHT22;8463;48.094;7.970;2024-02-21T09:41:04;9.10;1.00
2409;DHT22;8463;48.094;7.970;2024-02-21T09:43:34;9.30;1.00
2409;DHT22;8463;48.094;7.970;2024-02-21T09:46:00;9.50;1.00
2409;DHT22;8463;48.094;7.970;2024-02-21T09:51:07;10.00;1.00
2409;DHT22;8463;48.094;7.970;2024-02-21T09:53:35;10.10;1.00
2409;DHT22;8463;48.094;7.970;2024-02-21T09:56:03;10.10;1.00
2409;DHT22;8463;48.094;7.970;2024-02-21T09:58:30;10.30;1.00
2409;DHT22;8463;48.094;7.970;2024-02-21T10:00:56;10.50;1.00
2409;DHT22;8463;48.094;7.970;2024-02-21T10:03:25;10.70;1.00
2409;DHT22;8463;48.094;7.970;2024-02-21T10:05:51;10.90;1.00
2409;DHT22;8463;48.094;7.970;2024-02-21T10:08:18;11.20;1.00
2409;DHT22;8463;48.094;7.970;2024-02-21T10:10:45;11.30;1.00
2409;DHT22;8463;48.094;7.970;2024-02-21T10:13:26;11.40;1.00
2409;DHT22;8463;48.094;7.970;2024-02-21T10:16:08;11.60;1.00
2409;DHT22;8463;48.094;7.970;2024-02-21T10:18:34;11.70;1.00
2409;DHT22;8463;48.094;7.970;2024-02-21T10:21:07;11.90;1.00
2409;DHT22;8463;48.094;7.970;2024-02-21T10:23:47;12.00;1.00
2409;DHT22;8463;48.094;7.970;2024-02-21T10:26:14;12.30;1.00
2409;DHT22;8463;48.094;7.970;2024-02-21T10:28:40;12.60;1.00
2409;DHT22;8463;48.094;7.970;2024-02-21T10:31:27;13.00;1.00
2409;DHT22;8463;48.094;7.970;2024-02-21T10:33:57;13.30;1.00
2409;DHT22;8463;48.094;7.970;2024-02-21T10:36:23;13.60;1.00
2409;DHT22;8463;48.094;7.970;2024-02-21T10:38:52;13.70;1.00
2409;DHT22;8463;48.094;7.970;2024-02-21T10:41:20;14.00;1.00
2409;DHT22;8463;48.094;7.970;2024-02-21T10:43:53;14.00;1.00
2409;DHT22;8463;48.094;7.970;2024-02-21T10:46:23;14.00;1.00
2409;DHT22;8463;48.094;7.970;2024-02-21T10:49:12;14.10;1.00
2409;DHT22;8463;48.094;7.970;2024-02-21T10:51:43;14.40;1.00
2409;DHT22;8463;48.094;7.970;2024-02-21T10:56:43;14.70;1.00
2409;DHT22;8463;48.094;7.970;2024-02-21T10:59:09;14.90;1.00
2409;DHT22;8463;48.094;7.970;2024-02-21T11:01:34;15.00;1.00
2409;DHT22;8463;48.094;7.970;2024-02-21T11:04:09;15.10;1.00
2409;DHT22;8463;48.094;7.970;2024-02-21T11:06:38;15.20;1.00
2409;DHT22;8463;48.094;7.970;2024-02-21T11:11:42;15.20;1.00
2409;DHT22;8463;48.094;7.970;2024-02-21T11:14:09;15.20;1.00
2409;DHT22;8463;48.094;7.970;2024-02-21T11:16:40;15.10;1.00
2409;DHT22;8463;48.094;7.970;2024-02-21T11:21:39;15.30;1.00
2409;DHT22;8463;48.094;7.970;2024-02-21T11:24:06;15.50;1.00
2409;DHT22;8463;48.094;7.970;2024-02-21T11:26:37;15.90;1.00
2409;DHT22;8463;48.094;7.970;2024-02-21T11:29:03;15.70;1.00
2409;DHT22;8463;48.094;7.970;2024-02-21T11:31:42;15.70;1.00
2409;DHT22;8463;48.094;7.970;2024-02-21T11:34:09;15.40;1.00
2409;DHT22;8463;48.094;7.970;2024-02-21T11:36:35;15.00;1.00
2409;DHT22;8463;48.094;7.970;2024-02-21T11:39:04;14.90;1.00
2409;DHT22;8463;48.094;7.970;2024-02-21T11:41:31;14.70;1.00
2409;DHT22;8463;48.094;7.970;2024-02-21T11:43:57;14.50;1.00
2409;DHT22;8463;48.094;7.970;2024-02-21T11:46:22;14.20;1.00
2409;DHT22;8463;48.094;7.970;2024-02-21T11:48:49;14.00;1.00
2409;DHT22;8463;48.094;7.970;2024-02-21T11:51:26;13.90;1.00
2409;DHT22;8463;48.094;7.970;2024-02-21T11:53:53;13.90;1.00
2409;DHT22;8463;48.094;7.970;2024-02-21T11:56:19;13.70;1.00
2409;DHT22;8463;48.094;7.970;2024-02-21T11:58:46;13.60;1.00
2409;DHT22;8463;48.094;7.970;2024-02-21T12:01:15;13.60;1.00
2409;DHT22;8463;48.094;7.970;2024-02-21T12:03:42;13.50;1.00
2409;DHT22;8463;48.094;7.970;2024-02-21T12:06:07;13.50;1.00
2409;DHT22;8463;48.094;7.970;2024-02-21T12:08:46;13.50;1.00
2409;DHT22;8463;48.094;7.970;2024-02-21T12:11:22;13.50;1.00
2409;DHT22;8463;48.094;7.970;2024-02-21T12:14:03;13.50;1.00
2409;DHT22;8463;48.094;7.970;2024-02-21T12:16:32;13.60;1.00
2409;DHT22;8463;48.094;7.970;2024-02-21T12:18:59;13.70;1.00
2409;DHT22;8463;48.094;7.970;2024-02-21T12:21:32;13.70;1.00
2409;DHT22;8463;48.094;7.970;2024-02-21T12:24:00;13.70;1.00
2409;DHT22;8463;48.094;7.970;2024-02-21T12:26:25;13.70;1.00
2409;DHT22;8463;48.094;7.970;2024-02-21T12:28:53;13.70;1.00
2409;DHT22;8463;48.094;7.970;2024-02-21T12:31:18;13.70;1.00
2409;DHT22;8463;48.094;7.970;2024-02-21T12:33:44;13.70;1.00
2409;DHT22;8463;48.094;7.970;2024-02-21T12:36:10;13.70;1.00
2409;DHT22;8463;48.094;7.970;2024-02-21T12:38:36;13.80;1.00
2409;DHT22;8463;48.094;7.970;2024-02-21T12:41:02;13.80;1.00
2409;DHT22;8463;48.094;7.970;2024-02-21T12:43:28;13.70;1.00
2409;DHT22;8463;48.094;7.970;2024-02-21T12:45:54;13.80;1.00
2409;DHT22;8463;48.094;7.970;2024-02-21T12:48:20;13.90;1.00
2409;DHT22;8463;48.094;7.970;2024-02-21T12:50:49;13.90;1.00
2409;DHT22;8463;48.094;7.970;2024-02-21T12:53:17;13.90;1.00
2409;DHT22;8463;48.094;7.970;2024-02-21T12:55:45;13.90;1.00
2409;DHT22;8463;48.094;7.970;2024-02-21T12:58:10;13.90;1.00
2409;DHT22;8463;48.094;7.970;2024-02-21T13:00:36;13.90;1.00
2409;DHT22;8463;48.094;7.970;2024-02-21T13:03:05;14.00;1.00
2409;DHT22;8463;48.094;7.970;2024-02-21T13:05:31;14.00;1.00
2409;DHT22;8463;48.094;7.970;2024-02-21T13:07:58;13.90;1.00
2409;DHT22;8463;48.094;7.970;2024-02-21T13:10:23;13.90;1.00
2409;DHT22;8463;48.094;7.970;2024-02-21T13:12:49;13.90;1.00
2409;DHT22;8463;48.094;7.970;2024-02-21T13:15:17;13.90;1.00
2409;DHT22;8463;48.094;7.970;2024-02-21T13:17:46;13.90;1.00
2409;DHT22;8463;48.094;7.970;2024-02-21T13:20:14;14.00;1.00
2409;DHT22;8463;48.094;7.970;2024-02-21T13:22:42;14.00;1.00
2409;DHT22;8463;48.094;7.970;2024-02-21T13:25:08;14.00;1.00
2409;DHT22;8463;48.094;7.970;2024-02-21T13:27:34;14.00;1.00
2409;DHT22;8463;48.094;7.970;2024-02-21T13:30:00;14.00;1.00
2409;DHT22;8463;48.094;7.970;2024-02-21T13:32:31;14.00;1.00
2409;DHT22;8463;48.094;7.970;2024-02-21T13:34:57;14.00;1.00
2409;DHT22;8463;48.094;7.970;2024-02-21T13:37:26;14.00;1.00
2409;DHT22;8463;48.094;7.970;2024-02-21T13:39:52;14.10;1.00
2409;DHT22;8463;48.094;7.970;2024-02-21T13:42:18;14.00;1.00
2409;DHT22;8463;48.094;7.970;2024-02-21T13:44:47;14.10;1.00
2409;DHT22;8463;48.094;7.970;2024-02-21T13:47:15;14.10;1.00
2409;DHT22;8463;48.094;7.970;2024-02-21T13:49:43;14.10;1.00
2409;DHT22;8463;48.094;7.970;2024-02-21T13:52:09;14.10;1.00
2409;DHT22;8463;48.094;7.970;2024-02-21T13:54:35;14.20;1.00
2409;DHT22;8463;48.094;7.970;2024-02-21T13:57:00;14.30;1.00
2409;DHT22;8463;48.094;7.970;2024-02-21T13:59:28;14.40;1.00
2409;DHT22;8463;48.094;7.970;2024-02-21T14:01:53;14.50;1.00
2409;DHT22;8463;48.094;7.970;2024-02-21T14:04:19;14.70;1.00
2409;DHT22;8463;48.094;7.970;2024-02-21T14:06:47;14.80;1.00
2409;DHT22;8463;48.094;7.970;2024-02-21T14:09:14;15.00;1.00
2409;DHT22;8463;48.094;7.970;2024-02-21T14:11:39;15.00;1.00
2409;DHT22;8463;48.094;7.970;2024-02-21T14:14:06;15.10;1.00
2409;DHT22;8463;48.094;7.970;2024-02-21T14:16:35;15.10;1.00
2409;DHT22;8463;48.094;7.970;2024-02-21T14:19:00;14.90;1.00
2409;DHT22;8463;48.094;7.970;2024-02-21T14:21:27;14.90;1.00
2409;DHT22;8463;48.094;7.970;2024-02-21T14:23:54;14.80;1.00
2409;DHT22;8463;48.094;7.970;2024-02-21T14:26:20;14.60;1.00
2409;DHT22;8463;48.094;7.970;2024-02-21T14:28:47;14.60;1.00
2409;DHT22;8463;48.094;7.970;2024-02-21T14:31:12;14.50;1.00
2409;DHT22;8463;48.094;7.970;2024-02-21T14:33:38;14.40;1.00
2409;DHT22;8463;48.094;7.970;2024-02-21T14:36:04;14.30;1.00
2409;DHT22;8463;48.094;7.970;2024-02-21T14:38:30;14.30;1.00
2409;DHT22;8463;48.094;7.970;2024-02-21T14:40:55;14.30;1.00
2409;DHT22;8463;48.094;7.970;2024-02-21T14:43:21;14.30;1.00
2409;DHT22;8463;48.094;7.970;2024-02-21T14:45:47;14.30;1.00
2409;DHT22;8463;48.094;7.970;2024-02-21T14:48:14;14.20;1.00
2409;DHT22;8463;48.094;7.970;2024-02-21T14:50:40;14.20;1.00
2409;DHT22;8463;48.094;7.970;2024-02-21T14:53:06;14.20;1.00
2409;DHT22;8463;48.094;7.970;2024-02-21T14:55:33;14.10;1.00
2409;DHT22;8463;48.094;7.970;2024-02-21T14:57:59;14.10;1.00
2409;DHT22;8463;48.094;7.970;2024-02-21T15:00:28;14.10;1.00
2409;DHT22;8463;48.094;7.970;2024-02-21T15:02:57;14.10;1.00
2409;DHT22;8463;48.094;7.970;2024-02-21T15:05:23;14.00;1.00
2409;DHT22;8463;48.094;7.970;2024-02-21T15:07:48;14.00;1.00
2409;DHT22;8463;48.094;7.970;2024-02-21T15:10:14;14.00;1.00
2409;DHT22;8463;48.094;7.970;2024-02-21T15:12:40;13.90;1.00
2409;DHT22;8463;48.094;7.970;2024-02-21T15:15:06;14.00;1.00
2409;DHT22;8463;48.094;7.970;2024-02-21T15:17:34;14.00;1.00
2409;DHT22;8463;48.094;7.970;2024-02-21T15:19:59;14.00;1.00
2409;DHT22;8463;48.094;7.970;2024-02-21T15:22:26;14.00;1.00
2409;DHT22;8463;48.094;7.970;2024-02-21T15:24:52;14.20;1.00
2409;DHT22;8463;48.094;7.970;2024-02-21T15:27:18;14.20;1.00
2409;DHT22;8463;48.094;7.970;2024-02-21T15:29:44;14.20;1.00
2409;DHT22;8463;48.094;7.970;2024-02-21T15:32:10;14.20;1.00
2409;DHT22;8463;48.094;7.970;2024-02-21T15:34:36;14.20;1.00
2409;DHT22;8463;48.094;7.970;2024-02-21T15:37:01;14.20;1.00
2409;DHT22;8463;48.094;7.970;2024-02-21T15:39:28;14.10;1.00
2409;DHT22;8463;48.094;7.970;2024-02-21T15:41:56;14.10;1.00
2409;DHT22;8463;48.094;7.970;2024-02-21T15:44:22;14.10;1.00
2409;DHT22;8463;48.094;7.970;2024-02-21T15:46:48;14.00;1.00
2409;DHT22;8463;48.094;7.970;2024-02-21T15:49:14;14.00;1.00
2409;DHT22;8463;48.094;7.970;2024-02-21T15:51:39;14.00;1.00
2409;DHT22;8463;48.094;7.970;2024-02-21T15:54:07;13.90;1.00
2409;DHT22;8463;48.094;7.970;2024-02-21T15:56:34;13.90;1.00
2409;DHT22;8463;48.094;7.970;2024-02-21T15:59:00;13.90;1.00
2409;DHT22;8463;48.094;7.970;2024-02-21T16:01:26;13.80;1.00
2409;DHT22;8463;48.094;7.970;2024-02-21T16:03:53;13.70;1.00
2409;DHT22;8463;48.094;7.970;2024-02-21T16:06:21;13.50;1.00
2409;DHT22;8463;48.094;7.970;2024-02-21T16:08:47;13.40;1.00
2409;DHT22;8463;48.094;7.970;2024-02-21T16:11:15;13.30;1.00
2409;DHT22;8463;48.094;7.970;2024-02-21T16:13:42;13.20;1.00
2409;DHT22;8463;48.094;7.970;2024-02-21T16:16:09;13.10;1.00
2409;DHT22;8463;48.094;7.970;2024-02-21T16:18:35;12.90;1.00
2409;DHT22;8463;48.094;7.970;2024-02-21T16:21:00;12.80;1.00
2409;DHT22;8463;48.094;7.970;2024-02-21T16:23:26;12.70;1.00
2409;DHT22;8463;48.094;7.970;2024-02-21T16:25:52;12.60;1.00
2409;DHT22;8463;48.094;7.970;2024-02-21T16:28:18;12.50;1.00
2409;DHT22;8463;48.094;7.970;2024-02-21T16:30:43;12.40;1.00
2409;DHT22;8463;48.094;7.970;2024-02-21T16:33:09;12.30;1.00
2409;DHT22;8463;48.094;7.970;2024-02-21T16:35:38;12.20;1.00